createdAt,value
2022-12-15T00:01:42.517Z,-6.61
2022-12-15T00:04:27.891Z,-6.35
2022-12-15T00:07:13.038Z,-6.59
2022-12-15T00:09:57.803Z,-6.33
2022-12-15T00:12:42.855Z,-6.59
2022-12-15T00:15:28.221Z,-6.54
2022-12-15T00:18:13.954Z,-6.55
2022-12-15T00:20:59.300Z,-6.49
2022-12-15T00:23:44.990Z,-6.45
2022-12-15T00:26:30.503Z,-6.50
2022-12-15T00:29:15.257Z,-6.52
2022-12-15T00:32:00.292Z,-6.61
2022-12-15T00:34:45.299Z,-6.53
2022-12-15T00:37:30.490Z,-6.48
2022-12-15T00:40:04.631Z,-6.48
2022-12-15T00:42:31.234Z,-6.54
2022-12-15T00:44:59.152Z,-6.56
2022-12-15T00:47:25.799Z,-6.45
2022-12-15T00:50:11.054Z,-6.36
2022-12-15T00:52:55.779Z,-6.53
2022-12-15T00:55:40.677Z,-6.56
2022-12-15T00:58:25.504Z,-6.63
2022-12-15T01:01:10.417Z,-6.61
2022-12-15T01:03:55.263Z,-6.54
2022-12-15T01:06:41.072Z,-6.48
2022-12-15T01:09:28.985Z,-6.36
2022-12-15T01:12:14.395Z,-6.33
2022-12-15T01:14:59.955Z,-6.66
2022-12-15T01:17:45.144Z,-6.62
2022-12-15T01:20:34.779Z,-6.58
2022-12-15T01:23:01.322Z,-6.75
2022-12-15T01:25:28.024Z,-6.87
2022-12-15T01:27:54.933Z,-6.84
2022-12-15T01:30:26.432Z,-6.69
2022-12-15T01:32:53.500Z,-6.60
2022-12-15T01:35:21.078Z,-6.76
2022-12-15T01:37:49.962Z,-6.44
2022-12-15T01:40:37.696Z,-6.29
2022-12-15T01:43:04.350Z,-6.39
2022-12-15T01:45:30.665Z,-6.18
2022-12-15T01:48:03.351Z,-6.16
2022-12-15T01:50:32.753Z,-6.35
2022-12-15T01:52:59.491Z,-6.32
2022-12-15T01:55:30.230Z,-6.41
2022-12-15T01:58:03.064Z,-6.51
2022-12-15T02:00:35.565Z,-6.60
2022-12-15T02:03:09.189Z,-6.55
2022-12-15T02:05:36.766Z,-6.44
2022-12-15T02:08:04.927Z,-6.35
2022-12-15T02:11:00.933Z,-6.48
2022-12-15T02:13:52.100Z,-6.37
2022-12-15T02:16:43.509Z,-6.58
2022-12-15T02:19:43.640Z,-6.21
2022-12-15T02:22:47.249Z,-6.39
2022-12-15T02:25:22.859Z,-6.54
2022-12-15T02:28:01.364Z,-6.48
2022-12-15T02:31:11.542Z,-6.56
2022-12-15T02:33:46.299Z,-6.51
2022-12-15T02:36:23.430Z,-6.51
2022-12-15T02:38:49.854Z,-6.62
2022-12-15T02:41:39.917Z,-6.33
2022-12-15T02:44:17.469Z,-6.18
2022-12-15T02:47:15.012Z,-6.34
2022-12-15T02:50:42.074Z,-6.53
2022-12-15T02:53:23.705Z,-6.26
2022-12-15T02:56:08.347Z,-6.46
2022-12-15T02:59:15.183Z,-6.46
2022-12-15T03:01:51.984Z,-6.50
2022-12-15T03:04:19.698Z,-6.33
2022-12-15T03:07:00.567Z,-6.53
2022-12-15T03:09:27.772Z,-6.77
2022-12-15T03:11:54.575Z,-6.66
2022-12-15T03:14:21.152Z,-6.70
2022-12-15T03:16:47.738Z,-6.75
2022-12-15T03:19:14.228Z,-6.71
2022-12-15T03:21:40.639Z,-6.62
2022-12-15T03:24:07.358Z,-6.59
2022-12-15T03:26:33.757Z,-6.78
2022-12-15T03:29:00.358Z,-6.80
2022-12-15T03:31:26.932Z,-6.61
2022-12-15T03:33:53.811Z,-6.58
2022-12-15T03:36:20.471Z,-6.81
2022-12-15T03:38:47.060Z,-6.84
2022-12-15T03:41:13.457Z,-6.84
2022-12-15T03:43:39.884Z,-6.91
2022-12-15T03:46:06.315Z,-7.03
2022-12-15T03:48:33.445Z,-6.75
2022-12-15T03:50:59.844Z,-6.89
2022-12-15T03:53:26.381Z,-6.99
2022-12-15T03:55:52.791Z,-6.99
2022-12-15T03:58:19.606Z,-6.96
2022-12-15T04:00:45.984Z,-6.68
2022-12-15T04:03:12.636Z,-6.90
2022-12-15T04:05:39.307Z,-6.74
2022-12-15T04:08:05.808Z,-6.88
2022-12-15T04:10:35.315Z,-6.98
2022-12-15T04:13:12.064Z,-6.81
2022-12-15T04:15:39.896Z,-6.77
2022-12-15T04:18:10.065Z,-6.87
2022-12-15T04:20:38.062Z,-7.07
2022-12-15T04:23:07.634Z,-7.02
2022-12-15T04:25:53.496Z,-7.15
2022-12-15T04:28:38.869Z,-6.59
2022-12-15T04:31:40.412Z,-7.00
2022-12-15T04:34:29.268Z,-7.00
2022-12-15T04:37:14.785Z,-7.09
2022-12-15T04:40:05.303Z,-7.06
2022-12-15T04:42:52.469Z,-7.11
2022-12-15T04:45:41.329Z,-7.18
2022-12-15T04:48:26.829Z,-7.29
2022-12-15T04:51:12.027Z,-7.02
2022-12-15T04:53:57.137Z,-7.36
2022-12-15T04:56:41.954Z,-7.48
2022-12-15T04:59:26.861Z,-7.33
2022-12-15T05:02:11.793Z,-7.66
2022-12-15T05:04:56.984Z,-7.72
2022-12-15T05:07:43.957Z,-7.29
2022-12-15T05:10:29.253Z,-7.38
2022-12-15T05:13:14.357Z,-7.40
2022-12-15T05:15:59.187Z,-7.54
2022-12-15T05:18:44.382Z,-7.30
2022-12-15T05:21:29.300Z,-7.31
2022-12-15T05:24:14.352Z,-7.42
2022-12-15T05:27:03.354Z,-7.11
2022-12-15T05:29:48.288Z,-7.44
2022-12-15T05:32:14.674Z,-7.51
2022-12-15T05:34:41.877Z,-7.70
2022-12-15T05:37:08.266Z,-7.57
2022-12-15T05:39:38.117Z,-7.30
2022-12-15T05:42:04.769Z,-7.51
2022-12-15T05:44:31.159Z,-7.35
2022-12-15T05:46:57.551Z,-7.37
2022-12-15T05:49:23.942Z,-7.75
2022-12-15T05:51:50.357Z,-7.98
2022-12-15T05:54:18.652Z,-7.93
2022-12-15T05:56:46.832Z,-8.04
2022-12-15T05:59:17.198Z,-8.18
2022-12-15T06:01:43.818Z,-8.06
2022-12-15T06:04:12.745Z,-8.16
2022-12-15T06:06:40.014Z,-8.24
2022-12-15T06:09:06.479Z,-8.24
2022-12-15T06:11:32.899Z,-7.94
2022-12-15T06:13:59.316Z,-7.89
2022-12-15T06:16:28.169Z,-7.82
2022-12-15T06:19:00.001Z,-8.19
2022-12-15T06:21:29.460Z,-8.31
2022-12-15T06:23:56.825Z,-8.07
2022-12-15T06:26:30.873Z,-8.40
2022-12-15T06:28:59.462Z,-8.37
2022-12-15T06:31:26.669Z,-8.29
2022-12-15T06:34:00.920Z,-7.99
2022-12-15T06:36:28.685Z,-8.15
2022-12-15T06:39:05.589Z,-8.26
2022-12-15T06:41:32.569Z,-8.11
2022-12-15T06:44:00.025Z,-7.97
2022-12-15T06:46:28.100Z,-7.99
2022-12-15T06:48:55.407Z,-8.21
2022-12-15T06:51:23.631Z,-8.01
2022-12-15T06:53:53.934Z,-8.25
2022-12-15T06:56:28.926Z,-8.45
2022-12-15T06:58:59.608Z,-8.47
2022-12-15T07:01:26.765Z,-8.28
2022-12-15T07:03:54.190Z,-8.29
2022-12-15T07:06:21.084Z,-8.27
2022-12-15T07:08:53.753Z,-8.50
2022-12-15T07:11:21.994Z,-8.68
2022-12-15T07:13:52.776Z,-8.68
2022-12-15T07:16:21.070Z,-8.44
2022-12-15T07:18:47.544Z,-8.85
2022-12-15T07:21:14.140Z,-8.38
2022-12-15T07:23:53.930Z,-8.66
2022-12-15T07:26:20.949Z,-8.73
2022-12-15T07:28:47.389Z,-8.71
2022-12-15T07:31:13.889Z,-8.75
2022-12-15T07:33:40.533Z,-8.62
2022-12-15T07:36:08.436Z,-8.66
2022-12-15T07:38:35.583Z,-8.58
2022-12-15T07:41:04.372Z,-8.57
2022-12-15T07:43:31.523Z,-8.64
2022-12-15T07:45:58.941Z,-8.74
2022-12-15T07:48:25.502Z,-8.85
2022-12-15T07:51:02.941Z,-8.51
2022-12-15T07:53:33.578Z,-8.77
2022-12-15T07:56:09.576Z,-8.69
2022-12-15T07:58:37.452Z,-8.69
2022-12-15T08:01:07.003Z,-8.55
2022-12-15T08:03:35.731Z,-8.28
2022-12-15T08:06:12.214Z,-8.50
2022-12-15T08:08:39.671Z,-8.47
2022-12-15T08:11:07.894Z,-8.56
2022-12-15T08:16:21.434Z,-8.64
2022-12-15T08:18:49.032Z,-8.75
2022-12-15T08:21:15.654Z,-8.72
2022-12-15T08:23:42.084Z,-8.67
2022-12-15T08:26:12.059Z,-8.19
2022-12-15T08:28:39.961Z,-7.99
2022-12-15T08:31:08.798Z,-8.23
2022-12-15T08:33:36.195Z,-8.13
2022-12-15T08:36:05.334Z,-7.83
2022-12-15T08:38:33.376Z,-8.12
2022-12-15T08:41:11.290Z,-8.17
2022-12-15T08:43:44.038Z,-8.23
2022-12-15T08:46:14.981Z,-8.35
2022-12-15T08:48:42.122Z,-8.36
2022-12-15T08:51:09.722Z,-8.07
2022-12-15T08:53:36.502Z,-8.12
2022-12-15T08:56:12.177Z,-8.04
2022-12-15T08:58:39.599Z,-8.32
2022-12-15T09:01:08.516Z,-8.34
2022-12-15T09:03:36.404Z,-8.32
2022-12-15T09:06:04.623Z,-8.39
2022-12-15T09:08:31.528Z,-8.43
2022-12-15T09:10:58.810Z,-8.16
2022-12-15T09:13:25.919Z,-8.21
2022-12-15T09:16:09.436Z,-7.76
2022-12-15T09:18:36.562Z,-7.25
2022-12-15T09:21:05.234Z,-6.56
2022-12-15T09:23:32.286Z,-6.28
2022-12-15T09:26:07.406Z,-5.38
2022-12-15T09:28:34.788Z,-4.85
2022-12-15T09:31:09.508Z,-5.22
2022-12-15T09:33:36.797Z,-4.84
2022-12-15T09:36:04.699Z,-4.15
2022-12-15T09:38:33.852Z,-4.32
2022-12-15T09:41:15.329Z,-4.01
2022-12-15T09:43:52.441Z,-4.48
2022-12-15T09:46:34.871Z,-3.41
2022-12-15T09:49:06.393Z,-2.66
2022-12-15T09:51:39.216Z,-3.12
2022-12-15T09:54:06.771Z,-2.84
2022-12-15T09:56:42.433Z,-3.56
2022-12-15T09:59:29.034Z,-3.58
2022-12-15T10:02:13.982Z,-3.78
2022-12-15T10:04:47.403Z,-3.82
2022-12-15T10:07:39.562Z,-3.72
2022-12-15T10:10:51.098Z,-3.22
2022-12-15T10:13:27.374Z,-3.71
2022-12-15T10:16:00.724Z,-3.22
2022-12-15T10:18:37.274Z,-3.46
2022-12-15T10:21:03.982Z,-2.89
2022-12-15T10:23:34.266Z,-2.47
2022-12-15T10:26:21.027Z,-2.22
2022-12-15T10:29:13.091Z,-2.19
2022-12-15T10:31:53.244Z,-1.65
2022-12-15T10:34:33.669Z,-1.60
2022-12-15T10:37:00.330Z,-1.64
2022-12-15T10:39:42.815Z,-1.16
2022-12-15T10:42:11.492Z,-1.26
2022-12-15T10:44:41.395Z,-2.04
2022-12-15T10:47:31.582Z,-1.66
2022-12-15T10:50:24.774Z,-1.43
2022-12-15T10:52:51.921Z,-2.01
2022-12-15T10:55:38.189Z,-0.89
2022-12-15T10:58:17.697Z,-1.44
2022-12-15T11:00:46.612Z,-1.58
2022-12-15T11:03:26.448Z,-1.41
2022-12-15T11:05:55.205Z,-1.16
2022-12-15T11:08:22.979Z,-0.90
2022-12-15T11:11:14.220Z,-1.11
2022-12-15T11:13:41.965Z,-1.12
2022-12-15T11:16:17.173Z,-0.58
2022-12-15T11:18:56.461Z,-0.89
2022-12-15T11:21:27.858Z,-0.88
2022-12-15T11:24:13.747Z,-0.65
2022-12-15T11:26:56.702Z,-0.38
2022-12-15T11:29:23.560Z,0.42
2022-12-15T11:31:52.323Z,0.85
2022-12-15T11:34:25.975Z,0.55
2022-12-15T11:37:12.515Z,0.84
2022-12-15T11:40:08.611Z,-0.04
2022-12-15T11:43:00.663Z,0.48
2022-12-15T11:45:47.425Z,0.93
2022-12-15T11:48:19.481Z,1.08
2022-12-15T11:50:56.093Z,1.47
2022-12-15T11:53:41.071Z,1.53
2022-12-15T11:56:33.855Z,2.16
2022-12-15T11:59:28.031Z,1.52
2022-12-15T12:02:18.212Z,1.48
2022-12-15T12:05:01.313Z,1.36
2022-12-15T12:07:45.123Z,1.08
2022-12-15T12:10:20.849Z,1.66
2022-12-15T12:13:30.615Z,0.83
2022-12-15T12:16:29.231Z,2.00
2022-12-15T12:19:02.701Z,2.14
2022-12-15T12:21:36.933Z,1.34
2022-12-15T12:24:30.355Z,2.21
2022-12-15T12:27:16.592Z,1.84
2022-12-15T12:29:51.237Z,1.53
2022-12-15T12:32:36.924Z,3.14
2022-12-15T12:35:30.848Z,2.69
2022-12-15T12:38:07.672Z,2.49
2022-12-15T12:40:51.231Z,2.38
2022-12-15T12:43:40.235Z,2.77
2022-12-15T12:46:15.081Z,2.77
2022-12-15T12:48:44.128Z,2.88
2022-12-15T12:51:38.991Z,2.95
2022-12-15T12:54:37.044Z,2.64
2022-12-15T12:57:12.563Z,3.33
2022-12-15T12:59:43.717Z,2.76
2022-12-15T13:02:22.304Z,3.29
2022-12-15T13:05:05.032Z,2.68
2022-12-15T13:07:39.065Z,2.51
2022-12-15T13:10:18.095Z,3.17
2022-12-15T13:12:53.567Z,2.97
2022-12-15T13:15:29.314Z,1.53
2022-12-15T13:18:04.803Z,1.23
2022-12-15T13:20:33.695Z,0.87
2022-12-15T13:23:22.121Z,1.05
2022-12-15T13:25:57.517Z,1.89
2022-12-15T13:28:43.147Z,2.62
2022-12-15T13:31:21.775Z,3.03
2022-12-15T13:33:51.213Z,2.49
2022-12-15T13:36:36.631Z,1.39
2022-12-15T13:39:23.247Z,2.00
2022-12-15T13:42:32.589Z,1.72
2022-12-15T13:44:48.689Z,1.79
2022-12-15T13:47:22.329Z,1.92
2022-12-15T13:50:02.265Z,1.76
2022-12-15T13:53:18.798Z,1.18
2022-12-15T13:55:52.480Z,0.32
2022-12-15T13:58:21.613Z,-0.32
2022-12-15T14:00:51.942Z,-0.63
2022-12-15T14:03:18.415Z,-0.60
2022-12-15T14:05:50.142Z,-0.17
2022-12-15T14:08:19.002Z,-0.12
2022-12-15T14:10:50.865Z,-0.63
2022-12-15T14:13:24.400Z,-0.69
2022-12-15T14:15:53.023Z,-1.04
2022-12-15T14:18:32.322Z,-1.26
2022-12-15T14:21:00.880Z,-1.57
2022-12-15T14:23:52.509Z,-1.49
2022-12-15T14:26:30.920Z,-1.45
2022-12-15T14:29:06.062Z,-1.27
2022-12-15T14:31:33.055Z,-1.38
2022-12-15T14:34:11.964Z,-1.41
2022-12-15T14:36:41.770Z,-1.54
2022-12-15T14:39:19.485Z,-1.56
2022-12-15T14:41:50.552Z,-2.02
2022-12-15T14:44:31.537Z,-2.22
2022-12-15T14:47:08.426Z,-2.50
2022-12-15T14:49:45.681Z,-2.70
2022-12-15T14:52:30.430Z,-2.79
2022-12-15T14:54:59.849Z,-2.95
2022-12-15T14:57:29.200Z,-3.08
2022-12-15T14:59:55.790Z,-3.29
2022-12-15T15:02:26.910Z,-3.22
2022-12-15T15:05:04.071Z,-3.26
2022-12-15T15:07:35.213Z,-3.51
2022-12-15T15:10:03.853Z,-3.71
2022-12-15T15:12:47.134Z,-3.53
2022-12-15T15:15:19.528Z,-3.88
2022-12-15T15:17:52.826Z,-3.92
2022-12-15T15:20:27.035Z,-4.07
2022-12-15T15:23:22.895Z,-4.03
2022-12-15T15:25:50.697Z,-3.92
2022-12-15T15:28:20.055Z,-3.98
2022-12-15T15:30:56.430Z,-3.91
2022-12-15T15:33:27.186Z,-4.01
2022-12-15T15:35:59.557Z,-4.16
2022-12-15T15:38:35.022Z,-4.23
2022-12-15T15:41:15.557Z,-4.47
2022-12-15T15:43:42.666Z,-4.56
2022-12-15T15:46:18.158Z,-4.29
2022-12-15T15:48:48.804Z,-4.47
2022-12-15T15:51:15.296Z,-4.37
2022-12-15T15:53:41.846Z,-4.43
2022-12-15T15:56:16.105Z,-4.55
2022-12-15T15:58:46.637Z,-4.71
2022-12-15T16:01:13.850Z,-4.85
2022-12-15T16:03:40.936Z,-4.87
2022-12-15T16:06:19.996Z,-4.90
2022-12-15T16:08:53.761Z,-5.21
2022-12-15T16:11:22.149Z,-5.04
2022-12-15T16:13:48.905Z,-4.82
2022-12-15T16:16:19.052Z,-4.76
2022-12-15T16:18:46.032Z,-4.98
2022-12-15T16:21:16.803Z,-4.83
2022-12-15T16:23:45.977Z,-4.97
2022-12-15T16:26:16.645Z,-4.86
2022-12-15T16:28:43.309Z,-4.87
2022-12-15T16:31:24.581Z,-4.90
2022-12-15T16:33:51.117Z,-4.88
2022-12-15T16:36:17.727Z,-4.99
2022-12-15T16:38:44.377Z,-5.18
2022-12-15T16:41:15.474Z,-5.23
2022-12-15T16:43:47.940Z,-5.37
2022-12-15T16:46:15.404Z,-5.50
2022-12-15T16:48:42.849Z,-5.63
2022-12-15T16:51:18.231Z,-5.59
2022-12-15T16:53:45.560Z,-5.56
2022-12-15T16:56:14.324Z,-5.68
2022-12-15T16:58:41.775Z,-5.46
2022-12-15T17:01:10.056Z,-5.77
2022-12-15T17:03:36.687Z,-5.73
2022-12-15T17:06:06.494Z,-5.92
2022-12-15T17:08:44.898Z,-5.66
2022-12-15T17:11:18.394Z,-5.78
2022-12-15T17:13:48.199Z,-5.74
2022-12-15T17:16:14.937Z,-5.93
2022-12-15T17:18:42.970Z,-5.84
2022-12-15T17:21:15.796Z,-5.95
2022-12-15T17:23:44.790Z,-6.06
2022-12-15T17:26:27.459Z,-6.18
2022-12-15T17:28:55.187Z,-6.25
2022-12-15T17:31:23.741Z,-6.29
2022-12-15T17:33:50.369Z,-6.20
2022-12-15T17:36:27.633Z,-6.32
2022-12-15T17:39:03.201Z,-6.39
2022-12-15T17:41:58.046Z,-6.26
2022-12-15T17:44:36.946Z,-6.39
2022-12-15T17:47:06.179Z,-6.54
2022-12-15T17:49:36.023Z,-6.39
2022-12-15T17:52:18.998Z,-6.54
2022-12-15T17:54:45.441Z,-6.59
2022-12-15T17:57:12.505Z,-6.60
2022-12-15T17:59:39.028Z,-6.69
2022-12-15T18:02:06.032Z,-6.66
2022-12-15T18:04:32.591Z,-6.66
2022-12-15T18:07:02.148Z,-6.65
2022-12-15T18:09:29.381Z,-6.54
2022-12-15T18:11:55.785Z,-6.54
2022-12-15T18:14:22.949Z,-6.64
2022-12-15T18:16:49.749Z,-6.56
2022-12-15T18:19:16.232Z,-6.68
2022-12-15T18:21:42.898Z,-6.75
2022-12-15T18:24:17.297Z,-6.65
2022-12-15T18:26:44.115Z,-6.54
2022-12-15T18:29:17.632Z,-6.53
2022-12-15T18:31:46.933Z,-6.70
2022-12-15T18:34:18.278Z,-6.73
2022-12-15T18:36:44.984Z,-6.88
2022-12-15T18:39:26.252Z,-6.66
2022-12-15T18:41:55.108Z,-6.76
2022-12-15T18:44:26.350Z,-6.78
2022-12-15T18:46:53.294Z,-6.71
2022-12-15T18:49:22.199Z,-6.94
2022-12-15T18:51:48.784Z,-7.21
2022-12-15T18:54:21.276Z,-7.04
2022-12-15T18:56:47.979Z,-6.93
2022-12-15T18:59:16.438Z,-7.06
2022-12-15T19:01:48.180Z,-7.16
2022-12-15T19:04:15.320Z,-7.23
2022-12-15T19:06:42.342Z,-7.23
2022-12-15T19:09:18.651Z,-7.01
2022-12-15T19:12:16.559Z,-7.11
2022-12-15T19:14:43.863Z,-7.01
2022-12-15T19:17:36.693Z,-7.08
2022-12-15T19:20:24.681Z,-7.09
2022-12-15T19:22:52.196Z,-7.05
2022-12-15T19:25:26.637Z,-6.95
2022-12-15T19:27:59.683Z,-6.97
2022-12-15T19:30:36.941Z,-6.99
2022-12-15T19:33:07.964Z,-7.10
2022-12-15T19:35:34.779Z,-6.95
2022-12-15T19:38:03.177Z,-6.82
2022-12-15T19:40:32.457Z,-6.95
2022-12-15T19:43:00.272Z,-6.75
2022-12-15T19:45:30.062Z,-6.77
2022-12-15T19:47:56.616Z,-7.13
2022-12-15T19:50:27.458Z,-7.23
2022-12-15T19:53:02.254Z,-7.24
2022-12-15T19:55:32.973Z,-7.26
2022-12-15T19:57:59.790Z,-7.26
2022-12-15T20:00:27.301Z,-7.36
2022-12-15T20:02:55.017Z,-7.37
2022-12-15T20:05:24.494Z,-7.36
2022-12-15T20:07:54.914Z,-7.48
2022-12-15T20:10:31.771Z,-7.41
2022-12-15T20:13:00.192Z,-7.42
2022-12-15T20:15:26.688Z,-7.20
2022-12-15T20:17:57.216Z,-7.15
2022-12-15T20:20:27.035Z,-7.21
2022-12-15T20:22:56.559Z,-7.33
2022-12-15T20:25:27.155Z,-7.46
2022-12-15T20:27:54.238Z,-7.20
2022-12-15T20:30:26.831Z,-7.25
2022-12-15T20:32:54.630Z,-7.27
2022-12-15T20:35:22.498Z,-7.21
2022-12-15T20:37:50.093Z,-7.15
2022-12-15T20:40:28.190Z,-7.25
2022-12-15T20:42:56.068Z,-7.48
2022-12-15T20:45:26.690Z,-7.53
2022-12-15T20:47:55.783Z,-7.30
2022-12-15T20:50:49.028Z,-7.37
2022-12-15T20:53:25.320Z,-7.28
2022-12-15T20:55:53.731Z,-7.50
2022-12-15T20:58:21.017Z,-7.56
2022-12-15T21:00:49.318Z,-7.64
2022-12-15T21:03:19.818Z,-7.72
2022-12-15T21:05:50.611Z,-7.35
2022-12-15T21:08:25.930Z,-7.23
2022-12-15T21:10:54.167Z,-7.25
2022-12-15T21:13:31.543Z,-7.32
2022-12-15T21:15:58.334Z,-7.45
2022-12-15T21:21:29.446Z,-7.78
2022-12-15T21:23:57.793Z,-7.67
2022-12-15T21:26:28.972Z,-7.65
2022-12-15T21:28:59.067Z,-7.64
2022-12-15T21:31:26.084Z,-7.68
2022-12-15T21:33:52.724Z,-7.42
2022-12-15T21:36:22.001Z,-6.91
2022-12-15T21:38:51.813Z,-7.29
2022-12-15T21:41:22.089Z,-7.32
2022-12-15T21:43:49.614Z,-7.27
2022-12-15T21:46:20.537Z,-7.58
2022-12-15T21:49:08.329Z,-7.69
2022-12-15T21:51:37.709Z,-7.60
2022-12-15T21:54:05.524Z,-7.41
2022-12-15T21:56:32.157Z,-7.52
2022-12-15T21:58:59.054Z,-7.38
2022-12-15T22:01:29.761Z,-7.47
2022-12-15T22:03:58.502Z,-7.85
2022-12-15T22:06:27.842Z,-7.76
2022-12-15T22:09:00.941Z,-7.67
2022-12-15T22:11:30.051Z,-7.76
2022-12-15T22:13:58.716Z,-7.58
2022-12-15T22:16:25.345Z,-7.80
2022-12-15T22:18:56.837Z,-8.09
2022-12-15T22:21:24.259Z,-7.99
2022-12-15T22:23:51.279Z,-7.95
2022-12-15T22:26:31.198Z,-8.06
2022-12-15T22:29:00.981Z,-7.61
2022-12-15T22:31:28.248Z,-7.86
2022-12-15T22:33:55.709Z,-7.89
2022-12-15T22:36:22.141Z,-7.87
2022-12-15T22:38:48.543Z,-7.56
2022-12-15T22:41:22.306Z,-7.54
2022-12-15T22:43:55.019Z,-7.45
2022-12-15T22:46:24.055Z,-7.51
2022-12-15T22:48:52.936Z,-7.55
2022-12-15T22:51:21.748Z,-7.44
2022-12-15T22:53:49.227Z,-7.70
2022-12-15T22:56:27.723Z,-7.76
2022-12-15T22:59:00.841Z,-7.44
2022-12-15T23:01:27.972Z,-7.65
2022-12-15T23:03:54.646Z,-7.67
2022-12-15T23:06:23.605Z,-7.65
2022-12-15T23:08:55.994Z,-7.85
2022-12-15T23:11:39.651Z,-7.90
2022-12-15T23:14:09.592Z,-7.98
2022-12-15T23:16:37.310Z,-8.16
2022-12-15T23:19:04.542Z,-8.22
2022-12-15T23:21:31.100Z,-8.24
2022-12-15T23:23:57.833Z,-8.07
2022-12-15T23:26:26.027Z,-7.95
2022-12-15T23:28:53.860Z,-7.74
2022-12-15T23:31:22.095Z,-8.03
2022-12-15T23:33:48.601Z,-7.85
2022-12-15T23:36:16.135Z,-8.02
2022-12-15T23:38:42.848Z,-7.92
2022-12-15T23:41:15.672Z,-8.05
2022-12-15T23:43:42.096Z,-8.52
2022-12-15T23:46:08.677Z,-7.90
2022-12-15T23:48:38.601Z,-8.21
2022-12-15T23:51:08.678Z,-8.31
2022-12-15T23:53:36.397Z,-8.22
2022-12-15T23:56:10.780Z,-8.21
2022-12-15T23:58:39.416Z,-8.48
